sensor_id;sensor_type;location;lat;lon;timestamp;P1;durP1;ratioP1;P2;durP2;ratioP2
38865;SDS011;62686;48.984;8.394;2022-10-16T00:00:57;3.45;;;2.33;;
38865;SDS011;62686;48.984;8.394;2022-10-16T00:03:26;5.25;;;2.40;;
38865;SDS011;62686;48.984;8.394;2022-10-16T00:05:58;3.83;;;2.45;;
38865;SDS011;62686;48.984;8.394;2022-10-16T00:08:27;3.72;;;1.85;;
38865;SDS011;62686;48.984;8.394;2022-10-16T00:11:00;2.83;;;1.88;;
38865;SDS011;62686;48.984;8.394;2022-10-16T00:13:30;3.50;;;2.10;;
38865;SDS011;62686;48.984;8.394;2022-10-16T00:15:59;3.63;;;2.40;;
38865;SDS011;62686;48.984;8.394;2022-10-16T00:18:28;2.83;;;1.98;;
38865;SDS011;62686;48.984;8.394;2022-10-16T00:21:01;2.95;;;2.20;;
38865;SDS011;62686;48.984;8.394;2022-10-16T00:23:30;1.73;;;1.63;;
38865;SDS011;62686;48.984;8.394;2022-10-16T00:25:59;2.22;;;2.03;;
38865;SDS011;62686;48.984;8.394;2022-10-16T00:28:31;3.90;;;2.10;;
38865;SDS011;62686;48.984;8.394;2022-10-16T00:31:02;2.80;;;1.80;;
38865;SDS011;62686;48.984;8.394;2022-10-16T00:33:31;2.03;;;1.90;;
38865;SDS011;62686;48.984;8.394;2022-10-16T00:35:59;4.13;;;2.10;;
38865;SDS011;62686;48.984;8.394;2022-10-16T00:38:28;3.28;;;2.05;;
38865;SDS011;62686;48.984;8.394;2022-10-16T00:40:56;5.68;;;1.92;;
38865;SDS011;62686;48.984;8.394;2022-10-16T00:43:36;6.18;;;2.10;;
38865;SDS011;62686;48.984;8.394;2022-10-16T00:46:09;4.35;;;2.30;;
38865;SDS011;62686;48.984;8.394;2022-10-16T00:48:43;4.20;;;2.17;;
38865;SDS011;62686;48.984;8.394;2022-10-16T00:51:15;3.30;;;2.00;;
38865;SDS011;62686;48.984;8.394;2022-10-16T00:53:46;2.10;;;1.77;;
38865;SDS011;62686;48.984;8.394;2022-10-16T00:56:15;2.17;;;1.95;;
38865;SDS011;62686;48.984;8.394;2022-10-16T00:58:45;3.63;;;2.08;;
38865;SDS011;62686;48.984;8.394;2022-10-16T01:01:13;2.50;;;1.80;;
38865;SDS011;62686;48.984;8.394;2022-10-16T01:03:41;2.17;;;2.00;;
38865;SDS011;62686;48.984;8.394;2022-10-16T01:06:15;2.72;;;2.00;;
38865;SDS011;62686;48.984;8.394;2022-10-16T01:11:47;1.83;;;1.60;;
38865;SDS011;62686;48.984;8.394;2022-10-16T01:14:26;2.03;;;1.60;;
38865;SDS011;62686;48.984;8.394;2022-10-16T01:17:00;6.20;;;2.17;;
38865;SDS011;62686;48.984;8.394;2022-10-16T01:19:36;2.50;;;1.95;;
38865;SDS011;62686;48.984;8.394;2022-10-16T01:22:17;5.15;;;2.05;;
38865;SDS011;62686;48.984;8.394;2022-10-16T01:24:52;2.10;;;1.85;;
38865;SDS011;62686;48.984;8.394;2022-10-16T01:27:24;2.33;;;1.77;;
38865;SDS011;62686;48.984;8.394;2022-10-16T01:29:55;4.40;;;1.90;;
38865;SDS011;62686;48.984;8.394;2022-10-16T01:32:31;2.75;;;2.10;;
38865;SDS011;62686;48.984;8.394;2022-10-16T01:35:05;2.40;;;2.20;;
38865;SDS011;62686;48.984;8.394;2022-10-16T01:37:42;5.03;;;2.10;;
38865;SDS011;62686;48.984;8.394;2022-10-16T01:40:17;3.15;;;2.03;;
38865;SDS011;62686;48.984;8.394;2022-10-16T01:42:49;4.53;;;2.13;;
38865;SDS011;62686;48.984;8.394;2022-10-16T01:45:20;6.05;;;2.35;;
38865;SDS011;62686;48.984;8.394;2022-10-16T01:47:49;4.57;;;2.03;;
38865;SDS011;62686;48.984;8.394;2022-10-16T01:50:20;5.60;;;2.50;;
38865;SDS011;62686;48.984;8.394;2022-10-16T01:52:49;2.47;;;2.08;;
38865;SDS011;62686;48.984;8.394;2022-10-16T01:55:21;4.50;;;2.25;;
38865;SDS011;62686;48.984;8.394;2022-10-16T01:57:54;5.53;;;2.10;;
38865;SDS011;62686;48.984;8.394;2022-10-16T02:00:24;6.75;;;2.33;;
38865;SDS011;62686;48.984;8.394;2022-10-16T02:03:18;4.88;;;2.30;;
38865;SDS011;62686;48.984;8.394;2022-10-16T02:05:56;5.30;;;2.30;;
38865;SDS011;62686;48.984;8.394;2022-10-16T02:08:27;6.38;;;2.42;;
38865;SDS011;62686;48.984;8.394;2022-10-16T02:10:57;4.25;;;2.22;;
38865;SDS011;62686;48.984;8.394;2022-10-16T02:13:29;3.70;;;2.10;;
38865;SDS011;62686;48.984;8.394;2022-10-16T02:16:00;3.53;;;2.30;;
38865;SDS011;62686;48.984;8.394;2022-10-16T02:18:29;5.00;;;2.30;;
38865;SDS011;62686;48.984;8.394;2022-10-16T02:20:58;4.72;;;2.40;;
38865;SDS011;62686;48.984;8.394;2022-10-16T02:23:31;3.95;;;2.47;;
38865;SDS011;62686;48.984;8.394;2022-10-16T02:26:06;3.17;;;2.30;;
38865;SDS011;62686;48.984;8.394;2022-10-16T02:28:40;3.28;;;2.22;;
38865;SDS011;62686;48.984;8.394;2022-10-16T02:31:11;2.70;;;2.10;;
38865;SDS011;62686;48.984;8.394;2022-10-16T02:33:44;3.17;;;2.10;;
38865;SDS011;62686;48.984;8.394;2022-10-16T02:36:13;4.78;;;2.30;;
38865;SDS011;62686;48.984;8.394;2022-10-16T02:38:42;3.10;;;1.92;;
38865;SDS011;62686;48.984;8.394;2022-10-16T02:41:10;2.47;;;2.17;;
38865;SDS011;62686;48.984;8.394;2022-10-16T02:43:40;6.88;;;2.10;;
38865;SDS011;62686;48.984;8.394;2022-10-16T02:46:08;6.55;;;2.78;;
38865;SDS011;62686;48.984;8.394;2022-10-16T02:48:36;2.80;;;2.45;;
38865;SDS011;62686;48.984;8.394;2022-10-16T02:51:05;5.40;;;2.30;;
38865;SDS011;62686;48.984;8.394;2022-10-16T02:53:34;3.75;;;2.28;;
38865;SDS011;62686;48.984;8.394;2022-10-16T02:56:02;4.72;;;2.47;;
38865;SDS011;62686;48.984;8.394;2022-10-16T02:58:30;4.57;;;1.90;;
38865;SDS011;62686;48.984;8.394;2022-10-16T03:00:59;3.10;;;2.20;;
38865;SDS011;62686;48.984;8.394;2022-10-16T03:03:28;3.13;;;2.22;;
38865;SDS011;62686;48.984;8.394;2022-10-16T03:05:56;3.53;;;2.13;;
38865;SDS011;62686;48.984;8.394;2022-10-16T03:08:24;2.42;;;2.00;;
38865;SDS011;62686;48.984;8.394;2022-10-16T03:10:52;2.45;;;2.10;;
38865;SDS011;62686;48.984;8.394;2022-10-16T03:13:20;2.00;;;1.80;;
38865;SDS011;62686;48.984;8.394;2022-10-16T03:15:48;3.65;;;2.00;;
38865;SDS011;62686;48.984;8.394;2022-10-16T03:18:18;4.40;;;2.25;;
38865;SDS011;62686;48.984;8.394;2022-10-16T03:20:46;4.90;;;2.38;;
38865;SDS011;62686;48.984;8.394;2022-10-16T03:23:14;6.43;;;2.58;;
38865;SDS011;62686;48.984;8.394;2022-10-16T03:25:42;3.67;;;2.30;;
38865;SDS011;62686;48.984;8.394;2022-10-16T03:28:11;4.75;;;2.83;;
38865;SDS011;62686;48.984;8.394;2022-10-16T03:30:39;6.53;;;2.60;;
38865;SDS011;62686;48.984;8.394;2022-10-16T03:33:30;2.92;;;2.20;;
38865;SDS011;62686;48.984;8.394;2022-10-16T03:35:58;3.58;;;2.40;;
38865;SDS011;62686;48.984;8.394;2022-10-16T03:38:26;4.00;;;2.25;;
38865;SDS011;62686;48.984;8.394;2022-10-16T03:40:54;4.60;;;2.17;;
38865;SDS011;62686;48.984;8.394;2022-10-16T03:43:22;2.10;;;1.85;;
38865;SDS011;62686;48.984;8.394;2022-10-16T03:45:50;2.40;;;1.88;;
38865;SDS011;62686;48.984;8.394;2022-10-16T03:48:19;2.42;;;2.00;;
38865;SDS011;62686;48.984;8.394;2022-10-16T03:50:48;6.22;;;2.28;;
38865;SDS011;62686;48.984;8.394;2022-10-16T03:53:17;2.42;;;2.05;;
38865;SDS011;62686;48.984;8.394;2022-10-16T03:55:46;3.63;;;2.35;;
38865;SDS011;62686;48.984;8.394;2022-10-16T03:58:14;4.32;;;2.10;;
38865;SDS011;62686;48.984;8.394;2022-10-16T04:00:42;7.70;;;2.80;;
38865;SDS011;62686;48.984;8.394;2022-10-16T04:03:12;8.32;;;2.55;;
38865;SDS011;62686;48.984;8.394;2022-10-16T04:05:40;5.72;;;2.40;;
38865;SDS011;62686;48.984;8.394;2022-10-16T04:08:10;4.30;;;2.28;;
38865;SDS011;62686;48.984;8.394;2022-10-16T04:10:38;4.95;;;2.13;;
38865;SDS011;62686;48.984;8.394;2022-10-16T04:13:06;3.08;;;1.90;;
38865;SDS011;62686;48.984;8.394;2022-10-16T04:15:34;7.03;;;2.90;;
38865;SDS011;62686;48.984;8.394;2022-10-16T04:18:02;4.63;;;2.60;;
38865;SDS011;62686;48.984;8.394;2022-10-16T04:20:31;12.30;;;3.05;;
38865;SDS011;62686;48.984;8.394;2022-10-16T04:22:59;5.05;;;2.45;;
38865;SDS011;62686;48.984;8.394;2022-10-16T04:25:28;5.80;;;3.03;;
38865;SDS011;62686;48.984;8.394;2022-10-16T04:27:57;5.28;;;2.58;;
38865;SDS011;62686;48.984;8.394;2022-10-16T04:30:25;4.10;;;2.55;;
38865;SDS011;62686;48.984;8.394;2022-10-16T04:32:53;3.85;;;2.78;;
38865;SDS011;62686;48.984;8.394;2022-10-16T04:35:21;2.90;;;2.50;;
38865;SDS011;62686;48.984;8.394;2022-10-16T04:37:49;5.20;;;2.40;;
38865;SDS011;62686;48.984;8.394;2022-10-16T04:40:17;4.90;;;2.20;;
38865;SDS011;62686;48.984;8.394;2022-10-16T04:42:47;4.00;;;2.70;;
38865;SDS011;62686;48.984;8.394;2022-10-16T04:45:15;2.90;;;2.53;;
38865;SDS011;62686;48.984;8.394;2022-10-16T04:47:43;4.60;;;2.35;;
38865;SDS011;62686;48.984;8.394;2022-10-16T04:50:11;5.32;;;2.55;;
38865;SDS011;62686;48.984;8.394;2022-10-16T04:52:39;3.15;;;2.28;;
38865;SDS011;62686;48.984;8.394;2022-10-16T04:55:08;3.25;;;2.35;;
38865;SDS011;62686;48.984;8.394;2022-10-16T04:57:36;3.53;;;2.60;;
38865;SDS011;62686;48.984;8.394;2022-10-16T05:00:06;5.60;;;2.20;;
38865;SDS011;62686;48.984;8.394;2022-10-16T05:02:35;6.18;;;2.80;;
38865;SDS011;62686;48.984;8.394;2022-10-16T05:05:04;5.22;;;2.33;;
38865;SDS011;62686;48.984;8.394;2022-10-16T05:07:33;2.53;;;2.30;;
38865;SDS011;62686;48.984;8.394;2022-10-16T05:10:01;3.50;;;2.85;;
38865;SDS011;62686;48.984;8.394;2022-10-16T05:12:29;5.55;;;2.70;;
38865;SDS011;62686;48.984;8.394;2022-10-16T05:14:57;4.57;;;2.45;;
38865;SDS011;62686;48.984;8.394;2022-10-16T05:17:27;6.05;;;2.90;;
38865;SDS011;62686;48.984;8.394;2022-10-16T05:19:55;14.75;;;2.47;;
38865;SDS011;62686;48.984;8.394;2022-10-16T05:22:23;3.35;;;2.65;;
38865;SDS011;62686;48.984;8.394;2022-10-16T05:24:51;2.40;;;2.20;;
38865;SDS011;62686;48.984;8.394;2022-10-16T05:27:19;5.20;;;2.33;;
38865;SDS011;62686;48.984;8.394;2022-10-16T05:29:47;3.85;;;3.00;;
38865;SDS011;62686;48.984;8.394;2022-10-16T05:32:17;7.22;;;2.70;;
38865;SDS011;62686;48.984;8.394;2022-10-16T05:34:50;2.92;;;2.40;;
38865;SDS011;62686;48.984;8.394;2022-10-16T05:37:18;5.97;;;2.60;;
38865;SDS011;62686;48.984;8.394;2022-10-16T05:39:46;6.65;;;2.90;;
38865;SDS011;62686;48.984;8.394;2022-10-16T05:42:14;4.50;;;3.03;;
38865;SDS011;62686;48.984;8.394;2022-10-16T05:44:42;5.40;;;2.80;;
38865;SDS011;62686;48.984;8.394;2022-10-16T05:47:12;3.65;;;2.80;;
38865;SDS011;62686;48.984;8.394;2022-10-16T05:49:41;4.75;;;2.65;;
38865;SDS011;62686;48.984;8.394;2022-10-16T05:52:10;5.93;;;3.25;;
38865;SDS011;62686;48.984;8.394;2022-10-16T05:54:38;4.75;;;2.85;;
38865;SDS011;62686;48.984;8.394;2022-10-16T05:57:06;4.35;;;3.00;;
38865;SDS011;62686;48.984;8.394;2022-10-16T05:59:34;5.35;;;2.42;;
38865;SDS011;62686;48.984;8.394;2022-10-16T06:02:03;6.13;;;2.70;;
38865;SDS011;62686;48.984;8.394;2022-10-16T06:04:31;8.48;;;2.80;;
38865;SDS011;62686;48.984;8.394;2022-10-16T06:06:59;4.15;;;3.08;;
38865;SDS011;62686;48.984;8.394;2022-10-16T06:09:29;3.58;;;2.67;;
38865;SDS011;62686;48.984;8.394;2022-10-16T06:11:57;7.20;;;3.05;;
38865;SDS011;62686;48.984;8.394;2022-10-16T06:14:25;4.43;;;2.58;;
38865;SDS011;62686;48.984;8.394;2022-10-16T06:16:53;4.28;;;2.28;;
38865;SDS011;62686;48.984;8.394;2022-10-16T06:19:21;6.85;;;3.33;;
38865;SDS011;62686;48.984;8.394;2022-10-16T06:21:50;7.78;;;2.90;;
38865;SDS011;62686;48.984;8.394;2022-10-16T06:24:18;3.58;;;2.88;;
38865;SDS011;62686;48.984;8.394;2022-10-16T06:26:47;2.67;;;2.47;;
38865;SDS011;62686;48.984;8.394;2022-10-16T06:29:16;3.88;;;2.88;;
38865;SDS011;62686;48.984;8.394;2022-10-16T06:31:44;4.35;;;2.60;;
38865;SDS011;62686;48.984;8.394;2022-10-16T06:34:12;3.67;;;2.40;;
38865;SDS011;62686;48.984;8.394;2022-10-16T06:36:40;3.10;;;2.15;;
38865;SDS011;62686;48.984;8.394;2022-10-16T06:39:09;3.55;;;2.08;;
38865;SDS011;62686;48.984;8.394;2022-10-16T06:41:37;5.72;;;2.10;;
38865;SDS011;62686;48.984;8.394;2022-10-16T06:44:07;4.82;;;2.38;;
38865;SDS011;62686;48.984;8.394;2022-10-16T06:46:36;3.95;;;2.20;;
38865;SDS011;62686;48.984;8.394;2022-10-16T06:49:04;2.80;;;2.22;;
38865;SDS011;62686;48.984;8.394;2022-10-16T06:51:32;4.68;;;1.92;;
38865;SDS011;62686;48.984;8.394;2022-10-16T06:54:03;6.80;;;2.60;;
38865;SDS011;62686;48.984;8.394;2022-10-16T06:56:31;5.43;;;2.40;;
38865;SDS011;62686;48.984;8.394;2022-10-16T06:59:00;5.63;;;2.30;;
38865;SDS011;62686;48.984;8.394;2022-10-16T07:01:30;5.00;;;2.25;;
38865;SDS011;62686;48.984;8.394;2022-10-16T07:03:58;5.25;;;2.17;;
38865;SDS011;62686;48.984;8.394;2022-10-16T07:06:30;5.50;;;2.10;;
38865;SDS011;62686;48.984;8.394;2022-10-16T07:09:00;3.30;;;2.20;;
38865;SDS011;62686;48.984;8.394;2022-10-16T07:11:30;4.20;;;2.17;;
38865;SDS011;62686;48.984;8.394;2022-10-16T07:13:59;4.63;;;2.55;;
38865;SDS011;62686;48.984;8.394;2022-10-16T07:16:28;3.40;;;2.40;;
38865;SDS011;62686;48.984;8.394;2022-10-16T07:19:00;4.43;;;2.10;;
38865;SDS011;62686;48.984;8.394;2022-10-16T07:21:31;5.95;;;2.22;;
38865;SDS011;62686;48.984;8.394;2022-10-16T07:24:03;2.63;;;1.90;;
38865;SDS011;62686;48.984;8.394;2022-10-16T07:26:33;3.35;;;2.15;;
38865;SDS011;62686;48.984;8.394;2022-10-16T07:29:02;6.97;;;2.00;;
38865;SDS011;62686;48.984;8.394;2022-10-16T07:31:32;3.90;;;2.10;;
38865;SDS011;62686;48.984;8.394;2022-10-16T07:34:00;4.55;;;2.30;;
38865;SDS011;62686;48.984;8.394;2022-10-16T07:36:28;5.85;;;1.90;;
38865;SDS011;62686;48.984;8.394;2022-10-16T07:38:56;5.28;;;2.20;;
38865;SDS011;62686;48.984;8.394;2022-10-16T07:41:24;2.17;;;1.92;;
38865;SDS011;62686;48.984;8.394;2022-10-16T07:43:53;3.38;;;1.80;;
38865;SDS011;62686;48.984;8.394;2022-10-16T07:46:22;5.07;;;1.80;;
38865;SDS011;62686;48.984;8.394;2022-10-16T07:48:52;3.92;;;2.38;;
38865;SDS011;62686;48.984;8.394;2022-10-16T07:51:21;6.93;;;1.77;;
38865;SDS011;62686;48.984;8.394;2022-10-16T07:53:50;2.42;;;1.98;;
38865;SDS011;62686;48.984;8.394;2022-10-16T07:56:20;5.55;;;1.85;;
38865;SDS011;62686;48.984;8.394;2022-10-16T07:58:49;2.60;;;2.00;;
38865;SDS011;62686;48.984;8.394;2022-10-16T08:01:18;4.28;;;2.13;;
38865;SDS011;62686;48.984;8.394;2022-10-16T08:03:47;3.15;;;2.13;;
38865;SDS011;62686;48.984;8.394;2022-10-16T08:06:18;3.03;;;1.83;;
38865;SDS011;62686;48.984;8.394;2022-10-16T08:08:48;3.38;;;2.28;;
38865;SDS011;62686;48.984;8.394;2022-10-16T08:11:16;2.28;;;1.77;;
38865;SDS011;62686;48.984;8.394;2022-10-16T08:13:44;5.72;;;2.30;;
38865;SDS011;62686;48.984;8.394;2022-10-16T08:16:13;3.65;;;2.00;;
38865;SDS011;62686;48.984;8.394;2022-10-16T08:18:41;6.93;;;2.17;;
38865;SDS011;62686;48.984;8.394;2022-10-16T08:21:12;4.90;;;1.60;;
38865;SDS011;62686;48.984;8.394;2022-10-16T08:23:43;4.90;;;1.80;;
38865;SDS011;62686;48.984;8.394;2022-10-16T08:26:12;3.13;;;1.45;;
38865;SDS011;62686;48.984;8.394;2022-10-16T08:28:40;3.22;;;1.65;;
38865;SDS011;62686;48.984;8.394;2022-10-16T08:31:08;3.45;;;1.60;;
38865;SDS011;62686;48.984;8.394;2022-10-16T08:33:38;3.08;;;1.23;;
38865;SDS011;62686;48.984;8.394;2022-10-16T08:36:08;6.65;;;1.58;;
38865;SDS011;62686;48.984;8.394;2022-10-16T08:38:37;3.58;;;1.20;;
38865;SDS011;62686;48.984;8.394;2022-10-16T08:41:20;5.45;;;1.25;;
38865;SDS011;62686;48.984;8.394;2022-10-16T08:47:19;1.55;;;1.08;;
38865;SDS011;62686;48.984;8.394;2022-10-16T08:49:53;3.60;;;1.20;;
38865;SDS011;62686;48.984;8.394;2022-10-16T08:52:25;3.20;;;1.40;;
38865;SDS011;62686;48.984;8.394;2022-10-16T08:54:58;5.32;;;1.10;;
38865;SDS011;62686;48.984;8.394;2022-10-16T08:57:28;5.13;;;1.30;;
38865;SDS011;62686;48.984;8.394;2022-10-16T08:59:59;2.33;;;1.35;;
38865;SDS011;62686;48.984;8.394;2022-10-16T09:02:33;5.55;;;1.30;;
38865;SDS011;62686;48.984;8.394;2022-10-16T09:05:11;5.30;;;1.30;;
38865;SDS011;62686;48.984;8.394;2022-10-16T09:07:52;6.68;;;1.23;;
38865;SDS011;62686;48.984;8.394;2022-10-16T09:10:31;3.20;;;1.20;;
38865;SDS011;62686;48.984;8.394;2022-10-16T09:13:13;8.88;;;1.20;;
38865;SDS011;62686;48.984;8.394;2022-10-16T09:15:49;2.75;;;1.20;;
38865;SDS011;62686;48.984;8.394;2022-10-16T09:18:23;5.60;;;1.95;;
38865;SDS011;62686;48.984;8.394;2022-10-16T09:21:01;10.18;;;1.60;;
38865;SDS011;62686;48.984;8.394;2022-10-16T09:23:36;6.93;;;1.65;;
38865;SDS011;62686;48.984;8.394;2022-10-16T09:26:05;5.53;;;1.52;;
38865;SDS011;62686;48.984;8.394;2022-10-16T09:28:40;9.10;;;1.40;;
38865;SDS011;62686;48.984;8.394;2022-10-16T09:31:11;5.88;;;1.48;;
38865;SDS011;62686;48.984;8.394;2022-10-16T09:33:43;8.27;;;1.42;;
38865;SDS011;62686;48.984;8.394;2022-10-16T09:36:15;5.53;;;1.30;;
38865;SDS011;62686;48.984;8.394;2022-10-16T09:38:45;2.17;;;1.20;;
38865;SDS011;62686;48.984;8.394;2022-10-16T09:41:15;6.65;;;1.50;;
38865;SDS011;62686;48.984;8.394;2022-10-16T09:43:48;4.60;;;1.50;;
38865;SDS011;62686;48.984;8.394;2022-10-16T09:46:21;4.90;;;1.40;;
38865;SDS011;62686;48.984;8.394;2022-10-16T09:48:56;3.22;;;1.60;;
38865;SDS011;62686;48.984;8.394;2022-10-16T09:51:26;3.53;;;1.40;;
38865;SDS011;62686;48.984;8.394;2022-10-16T09:53:57;4.25;;;1.30;;
38865;SDS011;62686;48.984;8.394;2022-10-16T09:56:28;3.05;;;1.27;;
38865;SDS011;62686;48.984;8.394;2022-10-16T09:59:00;8.10;;;1.50;;
38865;SDS011;62686;48.984;8.394;2022-10-16T10:01:36;5.85;;;1.25;;
38865;SDS011;62686;48.984;8.394;2022-10-16T10:04:06;2.08;;;1.30;;
38865;SDS011;62686;48.984;8.394;2022-10-16T10:06:35;3.97;;;1.20;;
38865;SDS011;62686;48.984;8.394;2022-10-16T10:09:06;2.92;;;1.63;;
38865;SDS011;62686;48.984;8.394;2022-10-16T10:11:50;5.78;;;1.65;;
38865;SDS011;62686;48.984;8.394;2022-10-16T10:14:32;4.20;;;1.20;;
38865;SDS011;62686;48.984;8.394;2022-10-16T10:17:10;2.53;;;1.25;;
38865;SDS011;62686;48.984;8.394;2022-10-16T10:19:42;2.90;;;1.33;;
38865;SDS011;62686;48.984;8.394;2022-10-16T10:22:17;2.45;;;1.35;;
38865;SDS011;62686;48.984;8.394;2022-10-16T10:27:46;8.32;;;1.80;;
38865;SDS011;62686;48.984;8.394;2022-10-16T10:30:29;3.58;;;1.42;;
38865;SDS011;62686;48.984;8.394;2022-10-16T10:33:11;5.72;;;1.60;;
38865;SDS011;62686;48.984;8.394;2022-10-16T10:35:48;4.85;;;1.48;;
38865;SDS011;62686;48.984;8.394;2022-10-16T10:38:27;4.35;;;1.40;;
38865;SDS011;62686;48.984;8.394;2022-10-16T10:41:06;11.55;;;1.63;;
38865;SDS011;62686;48.984;8.394;2022-10-16T10:43:50;5.20;;;1.52;;
38865;SDS011;62686;48.984;8.394;2022-10-16T10:46:31;9.80;;;1.58;;
38865;SDS011;62686;48.984;8.394;2022-10-16T10:52:01;4.57;;;1.30;;
38865;SDS011;62686;48.984;8.394;2022-10-16T10:54:41;5.20;;;1.50;;
38865;SDS011;62686;48.984;8.394;2022-10-16T10:57:21;4.53;;;1.70;;
38865;SDS011;62686;48.984;8.394;2022-10-16T11:00:02;1.65;;;1.38;;
38865;SDS011;62686;48.984;8.394;2022-10-16T11:02:44;7.20;;;1.20;;
38865;SDS011;62686;48.984;8.394;2022-10-16T11:05:25;6.70;;;1.40;;
38865;SDS011;62686;48.984;8.394;2022-10-16T11:08:01;3.92;;;1.10;;
38865;SDS011;62686;48.984;8.394;2022-10-16T11:10:33;5.95;;;1.10;;
38865;SDS011;62686;48.984;8.394;2022-10-16T11:13:11;3.08;;;1.20;;
38865;SDS011;62686;48.984;8.394;2022-10-16T11:15:52;8.60;;;1.63;;
38865;SDS011;62686;48.984;8.394;2022-10-16T11:18:27;2.17;;;1.17;;
38865;SDS011;62686;48.984;8.394;2022-10-16T11:21:02;4.47;;;1.70;;
38865;SDS011;62686;48.984;8.394;2022-10-16T11:23:35;6.55;;;1.40;;
38865;SDS011;62686;48.984;8.394;2022-10-16T11:26:10;4.60;;;1.73;;
38865;SDS011;62686;48.984;8.394;2022-10-16T11:28:42;4.40;;;1.27;;
38865;SDS011;62686;48.984;8.394;2022-10-16T11:31:16;3.63;;;1.38;;
38865;SDS011;62686;48.984;8.394;2022-10-16T11:33:51;3.20;;;1.10;;
38865;SDS011;62686;48.984;8.394;2022-10-16T11:36:35;2.13;;;1.40;;
38865;SDS011;62686;48.984;8.394;2022-10-16T11:39:09;4.07;;;1.50;;
38865;SDS011;62686;48.984;8.394;2022-10-16T11:41:47;3.33;;;1.27;;
38865;SDS011;62686;48.984;8.394;2022-10-16T11:44:27;5.78;;;1.58;;
38865;SDS011;62686;48.984;8.394;2022-10-16T11:47:19;5.05;;;1.60;;
38865;SDS011;62686;48.984;8.394;2022-10-16T11:50:20;5.50;;;1.23;;
38865;SDS011;62686;48.984;8.394;2022-10-16T11:52:55;3.47;;;1.10;;
38865;SDS011;62686;48.984;8.394;2022-10-16T11:55:32;6.50;;;1.30;;
38865;SDS011;62686;48.984;8.394;2022-10-16T11:58:05;5.35;;;1.20;;
38865;SDS011;62686;48.984;8.394;2022-10-16T12:00:40;7.68;;;1.20;;
38865;SDS011;62686;48.984;8.394;2022-10-16T12:03:17;5.18;;;1.30;;
38865;SDS011;62686;48.984;8.394;2022-10-16T12:08:52;4.65;;;1.60;;
38865;SDS011;62686;48.984;8.394;2022-10-16T12:11:24;4.25;;;1.38;;
38865;SDS011;62686;48.984;8.394;2022-10-16T12:14:19;3.85;;;1.17;;
38865;SDS011;62686;48.984;8.394;2022-10-16T12:16:52;1.88;;;1.00;;
38865;SDS011;62686;48.984;8.394;2022-10-16T12:19:22;4.28;;;1.20;;
38865;SDS011;62686;48.984;8.394;2022-10-16T12:21:54;2.78;;;1.13;;
38865;SDS011;62686;48.984;8.394;2022-10-16T12:24:32;3.65;;;1.10;;
38865;SDS011;62686;48.984;8.394;2022-10-16T12:27:03;1.45;;;1.15;;
38865;SDS011;62686;48.984;8.394;2022-10-16T12:29:34;3.35;;;1.20;;
38865;SDS011;62686;48.984;8.394;2022-10-16T12:32:05;3.72;;;1.52;;
38865;SDS011;62686;48.984;8.394;2022-10-16T12:35:17;7.50;;;1.23;;
38865;SDS011;62686;48.984;8.394;2022-10-16T12:37:49;3.05;;;1.40;;
38865;SDS011;62686;48.984;8.394;2022-10-16T12:40:27;2.30;;;1.27;;
38865;SDS011;62686;48.984;8.394;2022-10-16T12:42:58;3.40;;;1.08;;
38865;SDS011;62686;48.984;8.394;2022-10-16T12:45:28;2.28;;;1.10;;
38865;SDS011;62686;48.984;8.394;2022-10-16T12:47:57;3.15;;;1.20;;
38865;SDS011;62686;48.984;8.394;2022-10-16T12:50:28;1.38;;;1.00;;
38865;SDS011;62686;48.984;8.394;2022-10-16T12:53:01;4.35;;;1.08;;
38865;SDS011;62686;48.984;8.394;2022-10-16T12:55:34;3.95;;;1.13;;
38865;SDS011;62686;48.984;8.394;2022-10-16T12:58:41;4.05;;;1.13;;
38865;SDS011;62686;48.984;8.394;2022-10-16T13:01:24;4.90;;;1.40;;
38865;SDS011;62686;48.984;8.394;2022-10-16T13:04:08;11.65;;;1.50;;
38865;SDS011;62686;48.984;8.394;2022-10-16T13:06:51;3.55;;;1.20;;
38865;SDS011;62686;48.984;8.394;2022-10-16T13:09:36;2.45;;;1.15;;
38865;SDS011;62686;48.984;8.394;2022-10-16T13:12:16;1.45;;;1.13;;
38865;SDS011;62686;48.984;8.394;2022-10-16T13:15:19;4.57;;;1.30;;
38865;SDS011;62686;48.984;8.394;2022-10-16T13:17:57;3.67;;;1.10;;
38865;SDS011;62686;48.984;8.394;2022-10-16T13:20:32;1.30;;;1.20;;
38865;SDS011;62686;48.984;8.394;2022-10-16T13:23:06;2.28;;;1.30;;
38865;SDS011;62686;48.984;8.394;2022-10-16T13:25:46;2.47;;;1.20;;
38865;SDS011;62686;48.984;8.394;2022-10-16T13:28:27;1.20;;;1.05;;
38865;SDS011;62686;48.984;8.394;2022-10-16T13:31:00;2.13;;;1.20;;
38865;SDS011;62686;48.984;8.394;2022-10-16T13:33:30;3.28;;;1.55;;
38865;SDS011;62686;48.984;8.394;2022-10-16T13:36:00;2.80;;;1.30;;
38865;SDS011;62686;48.984;8.394;2022-10-16T13:38:29;3.28;;;1.30;;
38865;SDS011;62686;48.984;8.394;2022-10-16T13:41:00;5.13;;;1.33;;
38865;SDS011;62686;48.984;8.394;2022-10-16T13:43:31;2.50;;;1.30;;
38865;SDS011;62686;48.984;8.394;2022-10-16T13:46:02;2.35;;;1.20;;
38865;SDS011;62686;48.984;8.394;2022-10-16T13:48:32;2.38;;;1.10;;
38865;SDS011;62686;48.984;8.394;2022-10-16T13:51:02;5.35;;;1.30;;
38865;SDS011;62686;48.984;8.394;2022-10-16T13:53:39;3.53;;;1.38;;
38865;SDS011;62686;48.984;8.394;2022-10-16T13:56:10;3.45;;;1.23;;
38865;SDS011;62686;48.984;8.394;2022-10-16T13:58:40;6.75;;;1.60;;
38865;SDS011;62686;48.984;8.394;2022-10-16T14:01:15;3.72;;;1.70;;
38865;SDS011;62686;48.984;8.394;2022-10-16T14:03:45;1.73;;;1.23;;
38865;SDS011;62686;48.984;8.394;2022-10-16T14:06:14;4.95;;;1.40;;
38865;SDS011;62686;48.984;8.394;2022-10-16T14:08:45;2.47;;;1.38;;
38865;SDS011;62686;48.984;8.394;2022-10-16T14:11:21;1.33;;;1.23;;
38865;SDS011;62686;48.984;8.394;2022-10-16T14:13:51;1.85;;;1.38;;
38865;SDS011;62686;48.984;8.394;2022-10-16T14:16:21;3.45;;;1.25;;
38865;SDS011;62686;48.984;8.394;2022-10-16T14:18:54;6.30;;;1.50;;
38865;SDS011;62686;48.984;8.394;2022-10-16T14:21:24;2.38;;;1.23;;
38865;SDS011;62686;48.984;8.394;2022-10-16T14:23:53;2.50;;;1.40;;
38865;SDS011;62686;48.984;8.394;2022-10-16T14:26:24;3.00;;;1.10;;
38865;SDS011;62686;48.984;8.394;2022-10-16T14:29:10;4.72;;;1.55;;
38865;SDS011;62686;48.984;8.394;2022-10-16T14:31:40;2.25;;;2.05;;
38865;SDS011;62686;48.984;8.394;2022-10-16T14:34:25;6.35;;;1.83;;
38865;SDS011;62686;48.984;8.394;2022-10-16T14:36:54;3.65;;;1.80;;
38865;SDS011;62686;48.984;8.394;2022-10-16T14:39:23;4.53;;;1.70;;
38865;SDS011;62686;48.984;8.394;2022-10-16T14:41:56;2.63;;;1.50;;
38865;SDS011;62686;48.984;8.394;2022-10-16T14:44:27;5.72;;;1.30;;
38865;SDS011;62686;48.984;8.394;2022-10-16T14:46:58;5.30;;;1.45;;
38865;SDS011;62686;48.984;8.394;2022-10-16T14:49:36;6.95;;;1.50;;
38865;SDS011;62686;48.984;8.394;2022-10-16T14:52:07;6.35;;;1.30;;
38865;SDS011;62686;48.984;8.394;2022-10-16T14:54:37;3.63;;;1.45;;
38865;SDS011;62686;48.984;8.394;2022-10-16T14:57:14;5.60;;;1.58;;
38865;SDS011;62686;48.984;8.394;2022-10-16T14:59:45;4.75;;;1.50;;
38865;SDS011;62686;48.984;8.394;2022-10-16T15:02:16;9.45;;;1.60;;
38865;SDS011;62686;48.984;8.394;2022-10-16T15:04:50;7.00;;;1.52;;
38865;SDS011;62686;48.984;8.394;2022-10-16T15:07:18;5.20;;;1.67;;
38865;SDS011;62686;48.984;8.394;2022-10-16T15:09:46;7.95;;;1.70;;
38865;SDS011;62686;48.984;8.394;2022-10-16T15:12:17;4.30;;;1.50;;
38865;SDS011;62686;48.984;8.394;2022-10-16T15:14:45;4.15;;;1.60;;
38865;SDS011;62686;48.984;8.394;2022-10-16T15:17:13;3.88;;;1.38;;
38865;SDS011;62686;48.984;8.394;2022-10-16T15:19:42;2.25;;;1.48;;
38865;SDS011;62686;48.984;8.394;2022-10-16T15:22:10;2.88;;;1.60;;
38865;SDS011;62686;48.984;8.394;2022-10-16T15:24:39;3.97;;;1.80;;
38865;SDS011;62686;48.984;8.394;2022-10-16T15:27:07;1.83;;;1.30;;
38865;SDS011;62686;48.984;8.394;2022-10-16T15:29:36;3.25;;;1.40;;
38865;SDS011;62686;48.984;8.394;2022-10-16T15:32:04;2.55;;;1.42;;